createdAt,value
2023-03-13T00:01:49.383Z,-1.00
2023-03-13T00:04:20.886Z,-1.00
2023-03-13T00:06:50.460Z,-1.10
2023-03-13T00:09:20.430Z,-1.10
2023-03-13T00:11:49.976Z,-1.10
2023-03-13T00:14:20.049Z,-1.20
2023-03-13T00:16:49.496Z,-1.20
2023-03-13T00:19:20.709Z,-1.20
2023-03-13T00:21:49.979Z,-1.20
2023-03-13T00:24:19.847Z,-1.20
2023-03-13T00:26:49.283Z,-1.10
2023-03-13T00:29:19.209Z,-1.10
2023-03-13T00:31:48.584Z,-1.10
2023-03-13T00:34:19.860Z,-1.00
2023-03-13T00:36:49.723Z,-1.00
2023-03-13T00:39:19.367Z,-1.00
2023-03-13T00:41:49.588Z,-0.90
2023-03-13T00:44:20.161Z,-0.80
2023-03-13T00:46:49.478Z,-0.70
2023-03-13T00:49:20.611Z,-0.70
2023-03-13T00:51:49.909Z,-0.70
2023-03-13T00:54:20.086Z,-0.70
2023-03-13T00:56:49.423Z,-0.70
2023-03-13T00:59:19.203Z,-0.70
2023-03-13T01:01:49.000Z,-0.70
2023-03-13T01:04:20.420Z,-0.60
2023-03-13T01:06:50.305Z,-0.70
2023-03-13T01:09:20.327Z,-0.70
2023-03-13T01:11:49.799Z,-0.60
2023-03-13T01:14:21.667Z,-0.50
2023-03-13T01:16:51.338Z,-0.50
2023-03-13T01:19:22.595Z,-0.50
2023-03-13T01:21:51.927Z,-0.50
2023-03-13T01:24:22.439Z,-0.50
2023-03-13T01:26:51.754Z,-0.50
2023-03-13T01:29:22.055Z,-0.50
2023-03-13T01:31:51.669Z,-0.50
2023-03-13T01:34:22.842Z,-0.50
2023-03-13T01:36:52.661Z,-0.50
2023-03-13T01:39:22.353Z,-0.50
2023-03-13T01:41:51.841Z,-0.50
2023-03-13T01:44:24.674Z,-0.50
2023-03-13T01:46:54.425Z,-0.40
2023-03-13T01:49:29.284Z,-0.40
2023-03-13T01:52:04.217Z,-0.40
2023-03-13T01:54:38.883Z,-0.40
2023-03-13T01:57:15.410Z,-0.30
2023-03-13T01:59:48.926Z,-0.30
2023-03-13T02:02:18.338Z,-0.30
2023-03-13T02:04:54.489Z,-0.20
2023-03-13T02:07:28.881Z,-0.30
2023-03-13T02:09:59.187Z,-0.30
2023-03-13T02:12:33.460Z,-0.30
2023-03-13T02:15:07.951Z,-0.20
2023-03-13T02:17:39.930Z,-0.20
2023-03-13T02:20:13.694Z,-0.10
2023-03-13T02:22:49.199Z,-0.20
2023-03-13T02:25:30.431Z,-0.10
2023-03-13T02:28:02.704Z,-0.10
2023-03-13T02:30:32.882Z,0.00
2023-03-13T02:33:02.810Z,0.00
2023-03-13T02:35:33.821Z,-0.10
2023-03-13T02:38:05.744Z,0.00
2023-03-13T02:40:39.823Z,0.00
2023-03-13T02:43:12.914Z,0.10
2023-03-13T02:45:42.830Z,0.10
2023-03-13T02:48:12.332Z,0.10
2023-03-13T02:50:42.069Z,0.20
2023-03-13T02:53:11.787Z,0.20
2023-03-13T02:55:43.970Z,0.20
2023-03-13T02:58:13.447Z,0.20
2023-03-13T03:00:43.691Z,0.20
2023-03-13T03:03:13.175Z,0.30
2023-03-13T03:05:43.405Z,0.30
2023-03-13T03:08:12.723Z,0.30
2023-03-13T03:10:44.040Z,0.30
2023-03-13T03:13:13.444Z,0.40
2023-03-13T03:15:43.169Z,0.30
2023-03-13T03:18:12.532Z,0.40
2023-03-13T03:20:42.234Z,0.50
2023-03-13T03:23:11.569Z,0.50
2023-03-13T03:25:43.113Z,0.50
2023-03-13T03:28:12.695Z,0.60
2023-03-13T03:30:42.346Z,0.60
2023-03-13T03:33:12.347Z,0.60
2023-03-13T03:35:42.005Z,0.70
2023-03-13T03:38:11.463Z,0.70
2023-03-13T03:40:42.696Z,0.70
2023-03-13T03:43:12.674Z,0.80
2023-03-13T03:45:42.654Z,0.70
2023-03-13T03:48:12.057Z,0.70
2023-03-13T03:50:41.742Z,0.70
2023-03-13T03:53:11.226Z,0.80
2023-03-13T03:55:41.126Z,0.70
2023-03-13T03:58:12.528Z,0.70
2023-03-13T04:00:45.322Z,0.70
2023-03-13T04:03:15.793Z,0.70
2023-03-13T04:05:46.039Z,0.70
2023-03-13T04:08:15.615Z,0.70
2023-03-13T04:10:45.256Z,0.70
2023-03-13T04:13:16.141Z,0.70
2023-03-13T04:15:46.195Z,0.70
2023-03-13T04:18:17.009Z,0.80
2023-03-13T04:20:46.933Z,0.90
2023-03-13T04:23:16.281Z,0.90
2023-03-13T04:25:46.590Z,0.90
2023-03-13T04:28:17.689Z,0.90
2023-03-13T04:30:47.388Z,1.00
2023-03-13T04:33:17.228Z,0.90
2023-03-13T04:35:47.034Z,0.90
2023-03-13T04:38:16.361Z,0.90
2023-03-13T04:40:46.610Z,1.00
2023-03-13T04:43:17.765Z,1.00
2023-03-13T04:45:48.212Z,1.00
2023-03-13T04:48:17.546Z,1.10
2023-03-13T04:50:47.449Z,1.10
2023-03-13T04:53:17.615Z,1.20
2023-03-13T04:55:47.813Z,1.30
2023-03-13T04:58:18.856Z,1.30
2023-03-13T05:00:48.996Z,1.30
2023-03-13T05:03:18.291Z,1.30
2023-03-13T05:05:48.300Z,1.40
2023-03-13T05:08:17.741Z,1.40
2023-03-13T05:10:48.513Z,1.40
2023-03-13T05:13:19.433Z,1.40
2023-03-13T05:15:49.133Z,1.50
2023-03-13T05:18:18.695Z,1.60
2023-03-13T05:20:49.042Z,1.60
2023-03-13T05:23:18.411Z,1.60
2023-03-13T05:25:48.161Z,1.60
2023-03-13T05:28:18.893Z,1.60
2023-03-13T05:30:48.755Z,1.60
2023-03-13T05:33:19.607Z,1.70
2023-03-13T05:35:49.037Z,1.70
2023-03-13T05:38:18.956Z,1.80
2023-03-13T05:40:48.993Z,1.80
2023-03-13T05:43:20.213Z,1.80
2023-03-13T05:45:49.888Z,1.80
2023-03-13T05:48:19.331Z,1.90
2023-03-13T05:50:49.189Z,1.90
2023-03-13T05:53:18.453Z,1.90
2023-03-13T05:55:48.099Z,1.90
2023-03-13T05:58:18.930Z,1.90
2023-03-13T06:00:49.130Z,1.90
2023-03-13T06:03:18.660Z,1.90
2023-03-13T06:05:48.560Z,1.90
2023-03-13T06:08:18.961Z,1.90
2023-03-13T06:10:50.023Z,2.00
2023-03-13T06:13:20.921Z,2.00
2023-03-13T06:15:54.309Z,2.00
2023-03-13T06:18:24.122Z,2.00
2023-03-13T06:20:58.929Z,2.10
2023-03-13T06:23:28.847Z,2.10
2023-03-13T06:25:58.664Z,2.20
2023-03-13T06:28:29.941Z,2.20
2023-03-13T06:31:03.766Z,2.20
2023-03-13T06:33:33.282Z,2.20
2023-03-13T06:36:03.678Z,2.20
2023-03-13T06:38:33.702Z,2.20
2023-03-13T06:41:03.583Z,2.20
2023-03-13T06:43:34.323Z,2.30
2023-03-13T06:46:06.812Z,2.30
2023-03-13T06:48:36.473Z,2.30
2023-03-13T06:51:06.525Z,2.40
2023-03-13T06:53:35.818Z,2.40
2023-03-13T06:56:06.354Z,2.40
2023-03-13T06:58:37.312Z,2.50
2023-03-13T07:01:09.706Z,2.50
2023-03-13T07:03:39.892Z,2.50
2023-03-13T07:06:10.946Z,2.50
2023-03-13T07:08:41.415Z,2.60
2023-03-13T07:11:13.586Z,2.60
2023-03-13T07:13:44.482Z,2.60
2023-03-13T07:16:16.832Z,2.70
2023-03-13T07:18:46.689Z,2.80
2023-03-13T07:21:16.671Z,2.80
2023-03-13T07:23:46.494Z,2.90
2023-03-13T07:26:17.800Z,3.00
2023-03-13T07:28:48.648Z,3.10
2023-03-13T07:31:20.948Z,3.10
2023-03-13T07:33:52.662Z,3.10
2023-03-13T07:36:22.660Z,3.20
2023-03-13T07:38:52.870Z,3.30
2023-03-13T07:41:22.902Z,3.40
2023-03-13T07:43:53.792Z,3.40
2023-03-13T07:46:23.608Z,3.50
2023-03-13T07:48:52.943Z,3.60
2023-03-13T07:51:36.797Z,3.70
2023-03-13T07:54:11.943Z,3.70
2023-03-13T07:56:42.682Z,3.70
2023-03-13T07:59:14.028Z,3.80
2023-03-13T08:01:44.523Z,3.90
2023-03-13T08:04:15.639Z,3.90
2023-03-13T08:06:45.520Z,4.00
2023-03-13T08:09:14.817Z,4.10
2023-03-13T08:11:45.318Z,4.10
2023-03-13T08:14:16.616Z,4.10
2023-03-13T08:16:46.460Z,4.10
2023-03-13T08:19:15.912Z,4.10
2023-03-13T08:21:45.553Z,4.10
2023-03-13T08:24:14.832Z,4.10
2023-03-13T08:26:45.327Z,4.10
2023-03-13T08:29:16.997Z,4.10
2023-03-13T08:31:48.005Z,4.10
2023-03-13T08:34:18.806Z,4.20
2023-03-13T08:36:48.778Z,4.20
2023-03-13T08:39:20.840Z,4.30
2023-03-13T08:41:51.029Z,4.30
2023-03-13T08:44:22.461Z,4.40
2023-03-13T08:46:52.922Z,4.40
2023-03-13T08:49:22.764Z,4.50
2023-03-13T08:51:53.777Z,4.50
2023-03-13T08:54:23.066Z,4.50
2023-03-13T08:56:53.297Z,4.40
2023-03-13T08:59:24.245Z,4.40
2023-03-13T09:01:53.974Z,4.40
2023-03-13T09:04:23.300Z,4.30
2023-03-13T09:06:53.450Z,4.40
2023-03-13T09:09:24.521Z,4.40
2023-03-13T09:11:54.714Z,4.40
2023-03-13T09:14:25.525Z,4.40
2023-03-13T09:16:56.664Z,4.30
2023-03-13T09:19:25.946Z,4.40
2023-03-13T09:21:55.617Z,4.40
2023-03-13T09:24:25.207Z,4.40
2023-03-13T09:27:01.483Z,4.40
2023-03-13T09:29:33.623Z,4.40
2023-03-13T09:32:04.156Z,4.60
2023-03-13T09:34:34.079Z,4.60
2023-03-13T09:37:04.332Z,4.60
2023-03-13T09:39:33.740Z,4.80
2023-03-13T09:42:11.823Z,4.90
2023-03-13T09:44:48.267Z,4.90
2023-03-13T09:47:24.772Z,5.00
2023-03-13T09:49:57.333Z,5.00
2023-03-13T09:52:29.050Z,5.00
2023-03-13T09:55:01.390Z,5.10
2023-03-13T09:57:36.985Z,5.10
2023-03-13T10:00:15.080Z,5.20
2023-03-13T10:02:47.968Z,5.20
2023-03-13T10:05:21.286Z,5.30
2023-03-13T10:07:52.206Z,5.40
2023-03-13T10:10:30.737Z,5.40
2023-03-13T10:13:11.817Z,5.50
2023-03-13T10:15:47.910Z,5.50
2023-03-13T10:18:21.952Z,5.50
2023-03-13T10:20:54.177Z,5.60
2023-03-13T10:23:32.134Z,5.60
2023-03-13T10:26:01.440Z,5.60
2023-03-13T10:28:31.280Z,5.70
2023-03-13T10:31:08.816Z,5.70
2023-03-13T10:33:39.839Z,5.70
2023-03-13T10:36:11.734Z,5.60
2023-03-13T10:38:53.226Z,5.70
2023-03-13T10:41:25.543Z,5.70
2023-03-13T10:43:56.821Z,5.70
2023-03-13T10:46:32.804Z,5.70
2023-03-13T10:49:04.939Z,5.60
2023-03-13T10:51:39.519Z,5.70
2023-03-13T10:54:23.481Z,5.70
2023-03-13T10:56:56.259Z,5.80
2023-03-13T10:59:27.684Z,5.80
2023-03-13T11:02:02.386Z,5.70
2023-03-13T11:04:34.623Z,5.80
2023-03-13T11:07:05.841Z,5.80
2023-03-13T11:09:35.690Z,5.80
2023-03-13T11:12:08.898Z,5.80
2023-03-13T11:14:39.874Z,5.80
2023-03-13T11:17:24.818Z,5.90
2023-03-13T11:20:04.517Z,5.90
2023-03-13T11:22:48.505Z,5.90
2023-03-13T11:25:25.053Z,5.90
2023-03-13T11:28:07.850Z,5.90
2023-03-13T11:30:57.853Z,6.00
2023-03-13T11:33:37.930Z,6.00
2023-03-13T11:36:16.216Z,6.00
2023-03-13T11:38:50.681Z,6.00
2023-03-13T11:41:32.162Z,6.00
2023-03-13T11:44:14.669Z,6.00
2023-03-13T11:46:54.215Z,6.00
2023-03-13T11:49:53.258Z,6.00
2023-03-13T11:52:42.351Z,6.00
2023-03-13T11:55:31.278Z,5.90
2023-03-13T11:58:21.322Z,6.00
2023-03-13T12:01:03.367Z,6.00
2023-03-13T12:03:40.635Z,6.00
2023-03-13T12:06:28.331Z,6.00
2023-03-13T12:09:04.764Z,6.00
2023-03-13T12:11:38.384Z,6.00
2023-03-13T12:14:14.901Z,6.00
2023-03-13T12:16:48.764Z,6.00
2023-03-13T12:19:22.617Z,6.00
2023-03-13T12:21:55.614Z,6.00
2023-03-13T12:24:33.410Z,6.00
2023-03-13T12:27:08.096Z,6.00
2023-03-13T12:29:46.818Z,6.00
2023-03-13T12:32:21.697Z,6.00
2023-03-13T12:35:02.154Z,6.10
2023-03-13T12:37:43.566Z,6.10
2023-03-13T12:40:21.424Z,6.10
2023-03-13T12:42:57.801Z,6.20
2023-03-13T12:45:30.010Z,6.20
2023-03-13T12:48:28.986Z,6.10
2023-03-13T12:51:17.403Z,6.20
2023-03-13T12:54:34.602Z,6.20
2023-03-13T12:57:20.375Z,6.30
2023-03-13T12:59:54.249Z,6.30
2023-03-13T13:02:26.682Z,6.30
2023-03-13T13:04:57.940Z,6.30
2023-03-13T13:07:30.226Z,6.30
2023-03-13T13:10:19.301Z,6.40
2023-03-13T13:13:30.510Z,6.40
2023-03-13T13:16:05.941Z,6.40
2023-03-13T13:18:36.947Z,6.40
2023-03-13T13:21:23.986Z,6.40
2023-03-13T13:23:54.564Z,6.40
2023-03-13T13:26:51.410Z,6.50
2023-03-13T13:29:57.494Z,6.50
2023-03-13T13:32:43.510Z,6.50
2023-03-13T13:35:33.917Z,6.50
2023-03-13T13:38:40.562Z,6.60
2023-03-13T13:41:28.483Z,6.60
2023-03-13T13:44:23.982Z,6.60
2023-03-13T13:46:56.907Z,6.70
2023-03-13T13:49:34.114Z,6.70
2023-03-13T13:52:34.510Z,6.80
2023-03-13T13:55:06.448Z,6.80
2023-03-13T13:57:40.334Z,6.90
2023-03-13T14:00:21.290Z,7.00
2023-03-13T14:02:53.500Z,7.00
2023-03-13T14:05:27.754Z,7.10
2023-03-13T14:08:02.351Z,7.10
2023-03-13T14:10:37.805Z,7.20
2023-03-13T14:13:15.608Z,7.20
2023-03-13T14:15:47.466Z,7.30
2023-03-13T14:18:25.755Z,7.30
2023-03-13T14:21:02.484Z,7.40
2023-03-13T14:23:42.381Z,7.50
2023-03-13T14:26:15.269Z,7.50
2023-03-13T14:28:47.271Z,7.50
2023-03-13T14:31:29.125Z,7.50
2023-03-13T14:34:01.676Z,7.60
2023-03-13T14:36:46.888Z,7.70
2023-03-13T14:39:21.517Z,7.70
2023-03-13T14:41:52.190Z,7.70
2023-03-13T14:44:26.101Z,7.80
2023-03-13T14:46:58.184Z,7.90
2023-03-13T14:49:32.344Z,7.90
2023-03-13T14:52:05.751Z,7.90
2023-03-13T14:54:36.931Z,7.90
2023-03-13T14:57:14.548Z,8.00
2023-03-13T14:59:45.220Z,7.90
2023-03-13T15:02:33.399Z,7.90
2023-03-13T15:05:05.294Z,8.00
2023-03-13T15:07:41.616Z,8.00
2023-03-13T15:10:22.169Z,8.00
2023-03-13T15:12:53.513Z,8.00
2023-03-13T15:15:23.301Z,8.10
2023-03-13T15:17:52.688Z,8.10
2023-03-13T15:20:23.347Z,8.10
2023-03-13T15:22:54.426Z,8.10
2023-03-13T15:25:25.161Z,8.10
2023-03-13T15:27:54.535Z,8.10
2023-03-13T15:30:25.252Z,8.20
2023-03-13T15:32:55.136Z,8.20
2023-03-13T15:35:28.837Z,8.20
2023-03-13T15:38:01.632Z,8.20
2023-03-13T15:40:32.538Z,8.20
2023-03-13T15:43:01.851Z,8.20
2023-03-13T15:45:32.130Z,8.20
2023-03-13T15:48:01.986Z,8.20
2023-03-13T15:50:32.170Z,8.20
2023-03-13T15:53:04.431Z,8.20
2023-03-13T15:55:34.410Z,8.30
2023-03-13T15:58:04.720Z,8.30
2023-03-13T16:00:34.942Z,8.30
2023-03-13T16:03:04.340Z,8.40
2023-03-13T16:05:34.153Z,8.50
2023-03-13T16:08:05.007Z,8.50
2023-03-13T16:10:35.385Z,8.50
2023-03-13T16:13:04.986Z,8.50
2023-03-13T16:15:34.967Z,8.50
2023-03-13T16:18:04.377Z,8.50
2023-03-13T16:20:35.896Z,8.50
2023-03-13T16:23:07.019Z,8.60
2023-03-13T16:25:37.333Z,8.60
2023-03-13T16:28:07.990Z,8.60
2023-03-13T16:30:37.759Z,8.70
2023-03-13T16:33:07.197Z,8.70
2023-03-13T16:35:36.966Z,8.70
2023-03-13T16:38:08.938Z,8.70
2023-03-13T16:40:38.961Z,8.80
2023-03-13T16:43:08.660Z,8.80
2023-03-13T16:45:38.394Z,8.90
2023-03-13T16:48:08.194Z,8.90
2023-03-13T16:50:39.972Z,8.90
2023-03-13T16:53:10.813Z,8.90
2023-03-13T16:55:40.808Z,8.90
2023-03-13T16:58:13.452Z,8.90
2023-03-13T17:00:45.502Z,9.00
2023-03-13T17:03:20.935Z,9.00
2023-03-13T17:05:50.673Z,9.00
2023-03-13T17:08:21.515Z,9.00
2023-03-13T17:10:51.330Z,9.10
2023-03-13T17:13:23.522Z,9.10
2023-03-13T17:15:53.287Z,9.20
2023-03-13T17:18:22.857Z,9.20
2023-03-13T17:20:52.937Z,9.20
2023-03-13T17:23:23.858Z,9.30
2023-03-13T17:25:53.729Z,9.20
2023-03-13T17:28:23.419Z,9.20
2023-03-13T17:30:53.170Z,9.30
2023-03-13T17:33:22.550Z,9.40
2023-03-13T17:35:52.642Z,9.40
2023-03-13T17:38:23.631Z,9.40
2023-03-13T17:40:54.580Z,9.40
2023-03-13T17:43:23.885Z,9.40
2023-03-13T17:46:06.431Z,9.40
2023-03-13T17:48:36.994Z,9.40
2023-03-13T17:51:07.511Z,9.40
2023-03-13T17:53:38.258Z,9.30
2023-03-13T17:56:18.165Z,9.40
2023-03-13T17:58:49.023Z,9.30
2023-03-13T18:01:21.482Z,9.40
2023-03-13T18:03:51.798Z,9.50
2023-03-13T18:06:25.269Z,9.40
2023-03-13T18:08:57.977Z,9.50
2023-03-13T18:11:28.500Z,9.60
2023-03-13T18:13:57.995Z,9.60
2023-03-13T18:16:31.467Z,9.60
2023-03-13T18:19:00.957Z,9.70
2023-03-13T18:21:31.021Z,9.70
2023-03-13T18:24:02.101Z,9.80
2023-03-13T18:26:33.769Z,9.80
2023-03-13T18:29:14.646Z,9.80
2023-03-13T18:31:45.628Z,9.80
2023-03-13T18:34:15.506Z,9.90
2023-03-13T18:36:45.331Z,9.90
2023-03-13T18:39:18.337Z,9.90
2023-03-13T18:41:49.132Z,9.90
2023-03-13T18:44:21.227Z,9.90
2023-03-13T18:46:53.157Z,9.90
2023-03-13T18:49:25.098Z,9.90
2023-03-13T18:51:55.899Z,10.00
2023-03-13T18:54:26.836Z,10.00
2023-03-13T18:56:56.495Z,10.00
2023-03-13T18:59:26.441Z,10.00
2023-03-13T19:01:56.514Z,10.10
2023-03-13T19:04:26.086Z,10.10
2023-03-13T19:06:55.892Z,10.10
2023-03-13T19:09:42.679Z,10.10
2023-03-13T19:12:15.707Z,10.20
2023-03-13T19:14:45.334Z,10.10
2023-03-13T19:17:20.612Z,10.20
2023-03-13T19:19:50.131Z,10.20
2023-03-13T19:22:20.457Z,10.20
2023-03-13T19:24:51.464Z,10.20
2023-03-13T19:27:21.692Z,10.20
2023-03-13T19:29:51.014Z,10.20
2023-03-13T19:32:21.367Z,10.20
2023-03-13T19:34:50.682Z,10.20
2023-03-13T19:37:20.468Z,10.20
2023-03-13T19:39:51.850Z,10.20
2023-03-13T19:42:21.781Z,10.20
2023-03-13T19:44:51.214Z,10.20
2023-03-13T19:47:20.987Z,10.30
2023-03-13T19:49:52.423Z,10.30
2023-03-13T19:52:22.353Z,10.30
2023-03-13T19:54:54.038Z,10.30
2023-03-13T19:57:24.006Z,10.20
2023-03-13T19:59:53.418Z,10.30
2023-03-13T20:02:23.374Z,10.20
2023-03-13T20:04:52.872Z,10.30
2023-03-13T20:07:22.545Z,10.20
2023-03-13T20:09:53.401Z,10.30
2023-03-13T20:12:23.644Z,10.30
2023-03-13T20:14:53.043Z,10.20
2023-03-13T20:17:22.963Z,10.20
2023-03-13T20:19:52.492Z,10.20
2023-03-13T20:22:22.227Z,10.30
2023-03-13T20:24:53.914Z,10.20
2023-03-13T20:27:23.793Z,10.20
2023-03-13T20:29:53.202Z,10.30
2023-03-13T20:32:23.141Z,10.20
2023-03-13T20:34:52.530Z,10.30
2023-03-13T20:37:22.319Z,10.20
2023-03-13T20:39:53.154Z,10.20
2023-03-13T20:42:22.981Z,10.20
2023-03-13T20:44:52.426Z,10.30
2023-03-13T20:47:23.001Z,10.20
2023-03-13T20:49:52.291Z,10.20
2023-03-13T20:52:22.200Z,10.30
2023-03-13T20:54:53.081Z,10.30
2023-03-13T20:57:22.778Z,10.30
2023-03-13T20:59:52.226Z,10.30
2023-03-13T21:02:21.989Z,10.30
2023-03-13T21:04:51.494Z,10.30
2023-03-13T21:07:22.229Z,10.30
2023-03-13T21:09:53.377Z,10.30
2023-03-13T21:12:23.175Z,10.20
2023-03-13T21:14:55.255Z,10.30
2023-03-13T21:17:25.159Z,10.30
2023-03-13T21:19:55.521Z,10.30
2023-03-13T21:22:27.551Z,10.30
2023-03-13T21:24:58.563Z,10.30
2023-03-13T21:27:28.449Z,10.30
2023-03-13T21:29:58.082Z,10.30
2023-03-13T21:32:27.941Z,10.30
2023-03-13T21:34:57.395Z,10.30
2023-03-13T21:37:27.117Z,10.30
2023-03-13T21:39:58.393Z,10.30
2023-03-13T21:42:29.686Z,10.30
2023-03-13T21:44:59.455Z,10.30
2023-03-13T21:47:29.302Z,10.30
2023-03-13T21:50:00.847Z,10.40
2023-03-13T21:52:33.238Z,10.30
2023-03-13T21:55:05.591Z,10.30
2023-03-13T21:57:36.073Z,10.30
2023-03-13T22:00:08.525Z,10.40
2023-03-13T22:02:39.219Z,10.40
2023-03-13T22:05:10.038Z,10.40
2023-03-13T22:07:40.114Z,10.40
2023-03-13T22:10:12.138Z,10.40
2023-03-13T22:12:42.132Z,10.40
2023-03-13T22:15:12.707Z,10.40
2023-03-13T22:17:42.030Z,10.40
2023-03-13T22:20:12.877Z,10.50
2023-03-13T22:22:42.735Z,10.50
2023-03-13T22:25:13.609Z,10.50
2023-03-13T22:27:43.492Z,10.50
2023-03-13T22:30:14.157Z,10.50
2023-03-13T22:32:43.881Z,10.50
2023-03-13T22:35:13.925Z,10.40
2023-03-13T22:37:43.754Z,10.40
2023-03-13T22:40:15.481Z,10.50
2023-03-13T22:42:45.209Z,10.40
2023-03-13T22:45:14.518Z,10.40
2023-03-13T22:47:44.259Z,10.40
2023-03-13T22:50:14.717Z,10.40
2023-03-13T22:52:45.161Z,10.40
2023-03-13T22:55:16.121Z,10.40
2023-03-13T22:57:46.145Z,10.40
2023-03-13T23:00:16.562Z,10.50
2023-03-13T23:02:46.358Z,10.40
2023-03-13T23:05:16.009Z,10.40
2023-03-13T23:07:46.149Z,10.40
2023-03-13T23:10:17.228Z,10.40
2023-03-13T23:12:47.190Z,10.40
2023-03-13T23:15:16.522Z,10.40
2023-03-13T23:17:46.314Z,10.40
2023-03-13T23:20:16.457Z,10.50
2023-03-13T23:22:48.059Z,10.50
2023-03-13T23:25:20.803Z,10.50
2023-03-13T23:27:50.711Z,10.50
2023-03-13T23:30:20.267Z,10.50
2023-03-13T23:32:50.601Z,10.60
2023-03-13T23:35:20.476Z,10.50
2023-03-13T23:37:53.528Z,10.60
2023-03-13T23:40:25.528Z,10.60
2023-03-13T23:42:55.173Z,10.50
2023-03-13T23:45:24.587Z,10.50
2023-03-13T23:47:55.671Z,10.50
2023-03-13T23:50:25.588Z,10.50
2023-03-13T23:52:56.051Z,10.50
2023-03-13T23:55:26.837Z,10.50
2023-03-13T23:57:57.054Z,10.50
